Notice: Undefined index: language in D:\xampp\htdocs\vam\index.php on line 25
Open Air Virtual

 METAR AND TAF INFORMATION
METAR FOR EGHE
ADDS - METARS form results

(1307 UTC 20 August 2019)
Data provider http://aviationweather.gov/metar/data/
 
METAR text: EGHE 201250Z 24010KT 9999 FEW018 19/13 Q1026
Conditions at: EGHE (SCILLY SAINT MAR, GB) observed 1250 UTC 20 August 2019
Temperature: 19.0°C (66°F)
Dewpoint: 13.0°C (55°F) [RH = 68%]
Pressure (altimeter): 30.30 inches Hg (1026.0 mb)
Winds: from the WSW (240 degrees) at 12 MPH (10 knots; 5.1 m/s)
Visibility: 6 or more miles (10+ km)
Ceiling: at least 12,000 feet AGL
Clouds: few clouds at 1800 feet AGL
Weather: no significant weather observed at this time

METAR text: EGHE 201220Z 24011KT 9999 FEW015 19/13 Q1026
Conditions at: EGHE (SCILLY SAINT MAR, GB) observed 1220 UTC 20 August 2019
Temperature: 19.0°C (66°F)
Dewpoint: 13.0°C (55°F) [RH = 68%]
Pressure (altimeter): 30.30 inches Hg (1026.0 mb)
Winds: from the WSW (240 degrees) at 13 MPH (11 knots; 5.7 m/s)
Visibility: 6 or more miles (10+ km)
Ceiling: at least 12,000 feet AGL
Clouds: few clouds at 1500 feet AGL
Weather: no significant weather observed at this time

Forecast for: EGHE (SCILLY SAINT MAR, GB)
Text: TAF EGHE 201101Z 2012/2018 25009KT 9999 FEW025
Forecast period: 1200 to 1800 UTC 20 August 2019
Forecast type: FROM: standard forecast or significant change
Winds: from the WSW (250 degrees) at 10 MPH (9 knots; 4.6 m/s)
Visibility: 6 or more miles 10+ km)
Ceiling: at least 12,000 feet AGL
Clouds: few clouds at 2500 feet AGL
Weather: no significant weather forecast for this period

 AIRPORT MAP

 RUNWAY INFORMATION
Runway 09 Runway length 1716 ft Runway width 59 ft
Runway elevation 0 ft Runway displaced threshold 0 ft Runway heading 9
Runway 27 Runway length 1716 ft Runway width 59 ft
Runway elevation 0 ft Runway displaced threshold 0 ft Runway heading 27
Runway 14 Runway length 1968 ft Runway width 75 ft
Runway elevation 0 ft Runway displaced threshold 0 ft Runway heading 143
Runway 32 Runway length 1968 ft Runway width 75 ft
Runway elevation 0 ft Runway displaced threshold 0 ft Runway heading 323
Runway 18 Runway length 1312 ft Runway width 147 ft
Runway elevation 0 ft Runway displaced threshold 0 ft Runway heading 177
Runway 36 Runway length 1312 ft Runway width 147 ft
Runway elevation 0 ft Runway displaced threshold 0 ft Runway heading 357

 AIRPORT FREQUENCIES
Type RAD/APP Name Scilly Isl Frequency 123.15 MHZ
Type TWR Name Scilly Isl Frequency 123.15 MHZ

 AIRPORT NEAR NAVIGATION AIDS
Type NDB Name St Marys Frequency 321 KHZ



Powered by Virtual Airlines Manager [v2.6.2]